• Join FlightAware (Why Join?)
  • Login
  • US Flag 
09:42PM EDT


 

Airport Tracker/Info


-or-


 

Live Flight TrackerFlight Track Log ✈ AAL963 ✈ 14-May-2013 ✈ KDFW - SBGR / GRU

Flight Track Log - Related Links

Times and Time Zones

All times are in EDT time to prevent confusion due to time zone crossing. See the AAL963 flight status page for this flight to view local times or setup timezone preferences in your user account.

Time Position Orientation Groundspeed Altitude Reporting Facility
EDT Latitude Longitude Course Direction KTS MPH feet Rate Location/Type
09:22PM 32.8650 -97.0300 179° South 181 208 1,800  Level FlightAware
09:23PM 32.8390 -97.0300 180° South 197 227 2,500 1,380 Climbing FlightAware
09:23PM 32.8100 -97.0300 180° South 226 260 3,200 1,800 Climbing FlightAware
09:23PM 32.7870 -97.0300 180° South 232 267 4,000 2,040 Climbing FlightAware
09:26PM 32.6885 -96.7557 77° East  Level FlightAware Approximate
09:27PM 32.7202 -96.5873 77° East  Level FlightAware Approximate
09:27PM 32.7440 -96.7320 77° East 345 397 11,200  Level FlightAware
09:28PM 32.7480 -96.6460 87° East 358 412 12,700 2,040 Climbing FlightAware
09:28PM 32.7510 -96.5670 87° East 370 426 14,100 2,040 Climbing FlightAware
09:29PM 32.7550 -96.4770 87° East 380 437 15,600 2,160 Climbing FlightAware
09:30PM 32.7590 -96.3880 87° East 380 437 17,200 1,980 Climbing FlightAware
09:30PM 32.7580 -96.3040 91° East 392 451 18,300 1,680 Climbing FlightAware
09:31PM 32.7440 -96.2120 100° East 402 463 19,600 1,680 Climbing FlightAware
09:32PM 32.7290 -96.1250 102° East 410 472 20,700 1,620 Climbing FlightAware
09:33PM 32.7120 -96.0240 101° East 425 489 21,900 1,740 Climbing FlightAware
09:33PM 32.7011 -95.9503 100° East 425 489 22,900 1,500 Climbing FlightAware ADS-B
09:34PM 32.6783 -95.8118 101° East 445 512 24,200 1,020 Climbing FlightAware ADS-B
09:35PM 32.6655 -95.7315 101° East 452 520 24,500 480 Climbing FlightAware ADS-B
09:35PM 32.6563 -95.6661 99° East 481 554 24,700 540 Climbing FlightAware ADS-B
09:35PM 32.6550 -95.6468 95° East 487 560 24,800 960 Climbing FlightAware ADS-B
09:36PM 32.6570 -95.5500 89° East 499 574 25,500 540 Climbing FlightAware
09:36PM 32.6640 -95.4620 85° East 499 574 25,500 1,260 Level FlightAware
09:37PM 32.6799 -95.3090 83° East 515 593 27,300 1,680 Climbing FlightAware ADS-B
09:38PM 32.6889 -95.1820 85° East 525 604 28,100 1,080 Climbing FlightAware ADS-B
09:39PM 32.6950 -95.0882 86° East 529 609 28,700 1,020 Climbing FlightAware ADS-B
09:39PM 32.7007 -94.9991 86° East 534 615 29,200 1,020 Climbing FlightAware ADS-B
09:39PM 32.7020 -94.9737 87° East 534 615 29,400 840 Climbing FlightAware ADS-B
09:39PM 32.7021 -94.9591 90° East 534 615 29,400 420 Level FlightAware ADS-B
09:39PM 32.7011 -94.9336 93° East 534 615 29,500 900 Climbing FlightAware ADS-B
09:40PM 32.6847 -94.8445 102° East 531 611 30,000 1,080 Climbing FlightAware ADS-B
09:40PM 32.6663 -94.7966 115° Southeast 525 604 30,400 1,200 Climbing FlightAware ADS-B
09:41PM 32.5720 -94.6253 123° Southeast 519 597 31,800 1,260 Climbing FlightAware ADS-B
09:41PM 32.5670 -94.6170 126° Southeast 32,000 1,560 Climbing FlightAware ADS-B
09:42PM 32.5263 -94.5443 124° Southeast 514 592 32,700 1,140 Climbing FlightAware ADS-B
09:43PM 32.4862 -94.4732 124° Southeast 513 590 33,200 900 Climbing FlightAware ADS-B
09:43PM 32.4500 -94.4100 124° Southeast 33,600 900 Climbing FlightAware ADS-B
09:43PM 32.4434 -94.3977 122° Southeast 513 590 33,700 840 Climbing FlightAware ADS-B
09:44PM 32.4037 -94.3277 124° Southeast 513 590 34,100 840 Climbing FlightAware ADS-B
09:44PM 32.3720 -94.2710 123° Southeast 525 604 34,500 960 Climbing FlightAware ADS-B
09:44PM 32.3640 -94.2577 125° Southeast 512 589 34,600 720 Climbing FlightAware ADS-B
09:44PM 32.3300 -94.1980 124° Southeast 537 618 34,900 720 Climbing FlightAware ADS-B
09:45PM 32.3219 -94.1834 123° Southeast 512 589 35,000 120 Climbing FlightAware ADS-B
09:45PM 32.2814 -94.1125 124° Southeast 512 589 35,000  Level FlightAware ADS-B
09:46PM 32.2414 -94.0424 124° Southeast 512 589 35,000  Level FlightAware ADS-B
09:46PM 32.2014 -93.9723 124° Southeast 511 588 35,000  Level FlightAware ADS-B
09:46PM 32.1950 -93.9610 124° Southeast 35,000  Level FlightAware ADS-B
09:47PM 32.1569 -93.8946 124° Southeast 511 588 35,000  Level FlightAware ADS-B
09:47PM 32.1129 -93.8181 124° Southeast 511 588 35,000  Level FlightAware ADS-B
09:48PM 32.0722 -93.7472 124° Southeast 512 589 35,000  Level FlightAware ADS-B
09:48PM 32.0293 -93.6727 124° Southeast 513 590 35,000  Level FlightAware ADS-B
09:49PM 31.9853 -93.5964 124° Southeast 513 590 35,000  Level FlightAware ADS-B
09:52PM 31.7477 -93.1875 124° Southeast 520 598 35,000  Level FlightAware ADS-B
09:53PM 31.6073 -92.9479 124° Southeast 523 602 35,000  Level FlightAware ADS-B
09:54PM 31.5602 -92.8664 124° Southeast 524 603 35,000  Level FlightAware ADS-B
09:55PM 31.4992 -92.7599 124° Southeast 524 603 35,000  Level FlightAware ADS-B
09:55PM 31.4577 -92.6879 124° Southeast 524 603 35,000  Level FlightAware ADS-B
09:57PM 31.3356 -92.4774 124° Southeast 524 603 35,000  Level FlightAware ADS-B
09:57PM 31.2820 -92.3854 124° Southeast 523 602 35,000  Level FlightAware ADS-B
09:59PM 31.2158 -92.2722 124° Southeast 525 604 35,000  Level Houston Center
10:00PM 31.1347 -92.1322 124° Southeast 521 600 35,000  Level Houston Center
10:05PM 30.6750 -91.3590 124° Southeast 525 604 35,000  Level FlightAware
10:05PM 30.6444 -91.3068 124° Southeast 525 604 35,000  Level FlightAware ADS-B
10:06PM 30.5738 -91.1890 125° Southeast 525 604 35,000  Level FlightAware ADS-B
10:07PM 30.5109 -91.0846 125° Southeast 525 604 35,000  Level FlightAware ADS-B
10:07PM 30.4680 -91.0130 125° Southeast 522 601 35,000  Level FlightAware
10:08PM 30.4060 -90.9100 125° Southeast 522 601 35,000  Level FlightAware
10:09PM 30.3510 -90.8210 126° Southeast 521 600 35,000  Level FlightAware
10:10PM 30.2870 -90.7150 125° Southeast 519 597 35,000  Level FlightAware
10:10PM 30.2310 -90.6230 125° Southeast 519 597 35,000  Level FlightAware
10:11PM 30.1910 -90.5570 125° Southeast 519 597 35,000  Level FlightAware
10:12PM 30.1090 -90.4230 125° Southeast 519 597 35,000  Level FlightAware
10:13PM 30.0380 -90.3080 125° Southeast 519 597 35,000  Level FlightAware
10:13PM 29.9870 -90.2250 125° Southeast 518 596 35,000  Level FlightAware
10:14PM 29.9270 -90.1270 125° Southeast 519 597 35,000  Level FlightAware
10:15PM 29.8710 -90.0370 126° Southeast 518 596 35,000  Level FlightAware
10:15PM 29.8120 -89.9490 128° Southeast 516 594 35,000  Level FlightAware
10:16PM 29.7380 -89.8500 131° Southeast 514 592 35,000  Level FlightAware
10:17PM 29.6770 -89.7670 130° Southeast 513 590 35,000  Level FlightAware
10:18PM 29.5910 -89.6510 130° Southeast 513 590 35,000  Level FlightAware
10:18PM 29.5200 -89.5540 130° Southeast 514 592 35,000  Level FlightAware
10:19PM 29.4720 -89.4890 130° Southeast 515 593 35,000  Level FlightAware
10:20PM 29.3900 -89.3790 131° Southeast 516 594 35,000  Level FlightAware
10:20PM 29.3290 -89.2970 130° Southeast 517 595 35,000  Level FlightAware
10:21PM 29.2670 -89.2130 130° Southeast 517 595 35,000  Level FlightAware
10:22PM 29.1950 -89.1160 130° Southeast 518 596 35,000  Level FlightAware
10:23PM 29.1330 -89.0340 131° Southeast 519 597 35,000  Level FlightAware
10:23PM 29.0800 -88.9640 131° Southeast 519 597 35,000  Level FlightAware
10:24PM 29.0010 -88.8590 131° Southeast 519 597 35,000  Level FlightAware
10:25PM 28.9390 -88.7760 130° Southeast 520 598 35,000  Level FlightAware
10:25PM 28.8830 -88.6860 125° Southeast 526 605 35,000  Level FlightAware
10:26PM 28.8450 -88.5690 110° East 530 610 35,000  Level FlightAware
10:27PM 28.8190 -88.4720 107° East 530 610 35,000  Level FlightAware
10:27PM 28.7940 -88.3810 107° East 530 610 35,000  Level FlightAware
10:28PM 28.7700 -88.2900 107° East 530 610 35,000  Level FlightAware
10:29PM 28.7400 -88.1760 107° East 530 610 35,000  Level FlightAware
10:30PM 28.7150 -88.0850 107° East 530 610 35,000  Level FlightAware
10:30PM 28.6910 -87.9940 107° East 530 610 35,000  Level FlightAware
10:31PM 28.6660 -87.9030 107° East 530 610 35,000  Level FlightAware
10:32PM 28.6360 -87.7900 107° East 530 610 35,000  Level FlightAware
10:32PM 28.6120 -87.6990 107° East 530 610 35,000  Level FlightAware
10:33PM 28.5870 -87.6080 107° East 530 610 35,000  Level FlightAware
10:34PM 28.5630 -87.5170 107° East 530 610 35,000  Level FlightAware
10:34PM 28.5380 -87.4270 108° East 530 610 35,000  Level FlightAware
10:35PM 28.5080 -87.3130 107° East 530 610 35,000  Level FlightAware
10:36PM 28.4840 -87.2230 107° East 530 610 35,000 -120 Level FlightAware
10:36PM 28.3900 -86.9647 107° East 535 616 34,900  Descending Jacksonville Center
10:37PM 28.3489 -86.8100 107° East 528 608 35,000  Climbing Jacksonville Center
10:38PM 28.2997 -86.6453 109° East 528 608 34,900 -60 Descending Jacksonville Center
10:39PM 28.2542 -86.4881 108° East 531 611 34,900  Level Jacksonville Center
10:45PM 27.9700 -85.5410 108° East 535 616 35,000  Climbing FlightAware
10:46PM 27.9380 -85.4360 109° East 535 616 35,000  Level FlightAware
10:46PM 27.9100 -85.3430 109° East 535 616 35,000  Level FlightAware
10:47PM 27.8760 -85.2080 106° East 538 619 35,000  Level FlightAware
10:48PM 27.8570 -85.0970 101° East 537 618 35,000  Level FlightAware
10:48PM 27.8360 -84.9750 101° East 537 618 35,000  Level FlightAware
10:49PM 27.8230 -84.8890 100° East 537 618 35,000  Level FlightAware
10:50PM 27.7790 -84.7900 117° Southeast 539 620 35,000  Level FlightAware
10:50PM 27.7230 -84.6970 124° Southeast 539 620 35,000  Level FlightAware
10:51PM 27.6650 -84.6040 125° Southeast 535 616 35,000  Level FlightAware
10:52PM 27.5980 -84.4980 125° Southeast 540 621 35,000  Level FlightAware
10:52PM 27.5410 -84.4080 126° Southeast 541 623 35,000  Level FlightAware
10:53PM 27.4760 -84.3040 125° Southeast 543 625 35,000  Level FlightAware
10:54PM 27.4260 -84.2240 125° Southeast 543 625 35,000  Level FlightAware
10:55PM 27.3530 -84.1080 125° Southeast 540 621 35,000  Level FlightAware
10:55PM 27.3090 -84.0400 126° Southeast 541 623 35,000 300 Level FlightAware
10:56PM 27.2180 -83.8970 126° Southeast 539 620 35,500 540 Climbing FlightAware
10:57PM 27.1540 -83.7970 126° Southeast 542 624 36,000 720 Climbing FlightAware
10:57PM 27.0970 -83.7070 125° Southeast 546 628 36,500 660 Climbing FlightAware
10:58PM 27.0390 -83.6160 126° Southeast 546 628 36,900 300 Climbing FlightAware
10:59PM 26.9750 -83.5140 125° Southeast 547 629 37,000  Climbing FlightAware
11:00PM 26.8620 -83.3410 126° Southeast 548 631 37,000  Level FlightAware
11:01PM 26.7820 -83.2150 125° Southeast 548 631 37,000  Level FlightAware
11:02PM 26.7330 -83.1360 125° Southeast 548 631 37,000  Level FlightAware
11:02PM 26.6830 -83.0570 125° Southeast 548 631 37,000  Level FlightAware
11:03PM 26.6340 -82.9780 125° Southeast 548 631 37,000  Level FlightAware
11:05PM 26.4720 -82.7360 127° Southeast 549 632 37,000  Level FlightAware
11:05PM 26.4070 -82.6360 126° Southeast 550 633 37,000  Level FlightAware
11:06PM 26.3280 -82.5150 126° Southeast 548 631 37,000  Level FlightAware
11:07PM 26.2610 -82.4110 126° Southeast 549 632 37,000  Level FlightAware
11:08PM 26.1990 -82.3170 126° Southeast 550 633 37,000  Level FlightAware
11:08PM 26.1400 -82.2270 126° Southeast 550 633 37,000  Level FlightAware
11:09PM 26.0710 -82.1210 126° Southeast 551 634 37,000  Level FlightAware
11:10PM 26.0170 -82.0390 126° Southeast 550 633 37,000  Level FlightAware
11:10PM 25.9440 -81.9290 126° Southeast 551 634 37,000  Level FlightAware
11:11PM 25.8810 -81.8330 126° Southeast 551 634 37,000  Level FlightAware
11:14PM 25.6290 -81.4540 126° Southeast 547 629 37,000  Level FlightAware
11:16PM 25.4130 -81.1300 126° Southeast 547 629 37,000  Level FlightAware
11:17PM 25.3642 -81.0600 126° Southeast 547 629 37,000  Level Miami Center
11:18PM 25.2697 -80.9258 128° Southeast 547 629 37,000 -60 Level Miami Center
11:19PM 25.1775 -80.7894 127° Southeast 547 629 36,900  Descending Miami Center
11:25PM 24.6570 -80.0150 127° Southeast 547 629 37,000  Climbing FlightAware
11:25PM 24.5850 -79.9100 127° Southeast 547 629 37,000  Level FlightAware
11:26PM 24.4950 -79.7800 127° Southeast 547 629 37,000  Level FlightAware
11:27PM 24.4430 -79.7040 127° Southeast 547 629 37,000  Level FlightAware
11:28PM 24.3430 -79.5590 127° Southeast 548 631 37,000  Level FlightAware
11:29PM 24.2630 -79.4440 127° Southeast 548 631 37,000  Level FlightAware
11:29PM 24.2120 -79.3670 126° Southeast 548 631 37,000  Level FlightAware
11:30PM 24.1620 -79.2910 126° Southeast 548 631 37,000  Level FlightAware
11:31PM 24.1110 -79.2140 126° Southeast 548 631 37,000  Level FlightAware
11:32PM 24.0480 -79.1190 126° Southeast 548 631 37,000  Level FlightAware
11:32PM 23.9970 -79.0430 126° Southeast 548 631 37,000  Level FlightAware
11:33PM 23.9460 -78.9660 126° Southeast 548 631 37,000  Level FlightAware
11:34PM 23.8830 -78.8710 126° Southeast 548 631 37,000  Level FlightAware
11:34PM 23.8320 -78.7950 126° Southeast 548 631 37,000  Level FlightAware
11:35PM 23.7820 -78.7180 125° Southeast 548 631 37,000  Level FlightAware
11:36PM 23.7310 -78.6420 126° Southeast 548 631 37,000  Level FlightAware
11:36PM 23.6800 -78.5660 126° Southeast 548 631 37,000  Level FlightAware
11:37PM 23.6170 -78.4710 126° Southeast 548 631 37,000  Level FlightAware
11:38PM 23.5660 -78.3950 126° Southeast 548 631 37,000  Level FlightAware
11:41PM 23.2646 -78.1596 144° Southeast  Level Estimated
11:42PM 23.1463 -78.0676 144° Southeast  Level Estimated
11:43PM 23.0280 -77.9758 144° Southeast  Level Estimated
11:44PM 22.9096 -77.8841 144° Southeast  Level Estimated
11:45PM 22.7912 -77.7925 145° Southeast  Level Estimated
11:46PM 22.6727 -77.7012 145° Southeast  Level Estimated
11:47PM 22.5541 -77.6100 145° Southeast  Level Estimated
11:48PM 22.4355 -77.5189 145° Southeast  Level Estimated
11:49PM 22.3169 -77.4280 145° Southeast  Level Estimated
11:50PM 22.1982 -77.3372 145° Southeast  Level Estimated
11:51PM 22.0794 -77.2467 145° Southeast  Level Estimated
11:52PM 21.9606 -77.1562 145° Southeast  Level Estimated
11:53PM 21.8418 -77.0659 145° Southeast  Level Estimated
11:54PM 21.7229 -76.9758 145° Southeast  Level Estimated
11:55PM 21.6039 -76.8858 145° Southeast  Level Estimated
11:56PM 21.4849 -76.7960 145° Southeast  Level Estimated
11:57PM 21.3659 -76.7063 145° Southeast  Level Estimated
11:58PM 21.2468 -76.6167 145° Southeast  Level Estimated
11:59PM 21.1277 -76.5273 145° Southeast  Level Estimated
12:00AM 21.0085 -76.4380 145° Southeast  Level Estimated
12:01AM 20.8893 -76.3489 145° Southeast  Level Estimated
12:02AM 20.7700 -76.2599 145° Southeast  Level Estimated
12:03AM 20.6507 -76.1711 145° Southeast  Level Estimated
12:04AM 20.5313 -76.0824 145° Southeast  Level Estimated
12:05AM 20.4119 -75.9938 145° Southeast  Level Estimated
12:06AM 20.2924 -75.9054 145° Southeast  Level Estimated
12:07AM 20.1729 -75.8171 145° Southeast  Level Estimated
12:08AM 20.0534 -75.7290 145° Southeast  Level Estimated
12:09AM 19.9338 -75.6410 145° Southeast  Level Estimated
12:10AM 19.8141 -75.5531 145° Southeast  Level Estimated
12:11AM 19.6945 -75.4653 145° Southeast  Level Estimated
12:12AM 19.5748 -75.3777 145° Southeast  Level Estimated
12:13AM 19.4550 -75.2902 145° Southeast  Level Estimated
12:14AM 19.3352 -75.2029 145° Southeast  Level Estimated
12:15AM 19.2154 -75.1156 145° Southeast  Level Estimated
12:16AM 19.0955 -75.0285 146° Southeast  Level Estimated
12:17AM 18.9753 -74.9414 146° Southeast  Level Estimated
12:18AM 18.8552 -74.8544 146° Southeast  Level Estimated
12:19AM 18.7349 -74.7675 146° Southeast  Level Estimated
12:20AM 18.6147 -74.6807 146° Southeast  Level Estimated
12:21AM 18.4944 -74.5941 146° Southeast  Level Estimated
12:22AM 18.3740 -74.5076 146° Southeast  Level Estimated
12:23AM 18.2537 -74.4212 146° Southeast  Level Estimated
12:24AM 18.1332 -74.3349 146° Southeast  Level Estimated
12:25AM 18.0128 -74.2487 146° Southeast  Level Estimated
12:26AM 17.8923 -74.1627 146° Southeast  Level Estimated
12:27AM 17.7718 -74.0768 146° Southeast  Level Estimated
12:28AM 17.6512 -73.9910 146° Southeast  Level Estimated
12:29AM 17.5306 -73.9053 146° Southeast  Level Estimated
12:30AM 17.4099 -73.8197 146° Southeast  Level Estimated
12:31AM 17.2893 -73.7342 146° Southeast  Level Estimated
12:32AM 17.1685 -73.6488 146° Southeast  Level Estimated
12:33AM 17.0478 -73.5636 146° Southeast  Level Estimated
12:34AM 16.9270 -73.4785 146° Southeast  Level Estimated
12:35AM 16.8062 -73.3934 146° Southeast  Level Estimated
12:36AM 16.6853 -73.3085 146° Southeast  Level Estimated
12:37AM 16.5644 -73.2237 146° Southeast  Level Estimated
12:38AM 16.4435 -73.1390 146° Southeast  Level Estimated
12:39AM 16.3225 -73.0544 146° Southeast  Level Estimated
12:40AM 16.2015 -72.9699 146° Southeast  Level Estimated
12:41AM 16.0805 -72.8855 146° Southeast  Level Estimated
12:42AM 15.9595 -72.8012 146° Southeast  Level Estimated
12:43AM 15.8384 -72.7171 146° Southeast  Level Estimated
12:44AM 15.7172 -72.6330 146° Southeast  Level Estimated
12:45AM 15.5961 -72.5490 146° Southeast  Level Estimated
12:46AM 15.4749 -72.4651 146° Southeast  Level Estimated
12:47AM 15.3537 -72.3813 146° Southeast  Level Estimated
12:48AM 15.2324 -72.2977 146° Southeast  Level Estimated
12:49AM 15.1111 -72.2141 146° Southeast  Level Estimated
12:50AM 14.9898 -72.1306 146° Southeast  Level Estimated
12:51AM 14.8685 -72.0472 146° Southeast  Level Estimated
12:52AM 14.7471 -71.9639 146° Southeast  Level Estimated
12:53AM 14.6257 -71.8806 146° Southeast  Level Estimated
12:54AM 14.5043 -71.7975 146° Southeast  Level Estimated
12:55AM 14.3828 -71.7145 146° Southeast  Level Estimated
12:56AM 14.2613 -71.6315 147° Southeast  Level Estimated
12:57AM 14.1398 -71.5487 147° Southeast  Level Estimated
12:58AM 14.0183 -71.4659 147° Southeast  Level Estimated
12:59AM 13.8967 -71.3832 147° Southeast  Level Estimated
01:00AM 13.7751 -71.3007 147° Southeast  Level Estimated
01:01AM 13.6535 -71.2181 147° Southeast  Level Estimated
01:02AM 13.5318 -71.1357 147° Southeast  Level Estimated
01:03AM 13.4101 -71.0534 147° Southeast  Level Estimated
01:04AM 13.2884 -70.9711 147° Southeast  Level Estimated
01:05AM 13.1667 -70.8890 147° Southeast  Level Estimated
01:06AM 13.0449 -70.8069 147° Southeast  Level Estimated
01:07AM 12.9231 -70.7249 147° Southeast  Level Estimated
01:08AM 12.8013 -70.6429 147° Southeast  Level Estimated
01:09AM 12.6794 -70.5611 147° Southeast  Level Estimated
01:10AM 12.5576 -70.4793 147° Southeast  Level Estimated
01:11AM 12.4357 -70.3976 147° Southeast  Level Estimated
01:12AM 12.3138 -70.3160 147° Southeast  Level Estimated
01:13AM 12.1923 -70.2348 147° Southeast  Level Estimated
01:14AM 12.0707 -70.1536 147° Southeast  Level Estimated
01:15AM 11.9492 -70.0725 147° Southeast  Level Estimated
01:16AM 11.8274 -69.9913 147° Southeast  Level Estimated
01:17AM 11.7056 -69.9102 147° Southeast  Level Estimated
01:18AM 11.5837 -69.8292 147° Southeast  Level Estimated
01:19AM 11.4619 -69.7482 147° Southeast  Level Estimated
01:20AM 11.3400 -69.6673 147° Southeast  Level Estimated
01:21AM 11.2181 -69.5865 147° Southeast  Level Estimated
01:22AM 11.0962 -69.5058 147° Southeast  Level Estimated
01:23AM 10.9742 -69.4251 147° Southeast  Level Estimated
01:24AM 10.8522 -69.3445 147° Southeast  Level Estimated
01:25AM 10.7302 -69.2639 147° Southeast  Level Estimated
01:26AM 10.6082 -69.1834 147° Southeast  Level Estimated
01:27AM 10.4862 -69.1030 147° Southeast  Level Estimated
01:28AM 10.3642 -69.0227 147° Southeast  Level Estimated
01:29AM 10.2421 -68.9424 147° Southeast  Level Estimated
01:30AM 10.1200 -68.8621 147° Southeast  Level Estimated
01:31AM 9.9979 -68.7820 147° Southeast  Level Estimated
01:32AM 9.8757 -68.7018 147° Southeast  Level Estimated
01:33AM 9.7536 -68.6218 147° Southeast  Level Estimated
01:34AM 9.6314 -68.5418 147° Southeast  Level Estimated
01:35AM 9.5092 -68.4619 147° Southeast  Level Estimated
01:36AM 9.3870 -68.3820 147° Southeast  Level Estimated
01:37AM 9.2648 -68.3021 147° Southeast  Level Estimated
01:38AM 9.1426 -68.2224 147° Southeast  Level Estimated
01:39AM 9.0203 -68.1427 147° Southeast  Level Estimated
01:40AM 8.8981 -68.0630 147° Southeast  Level Estimated
01:41AM 8.7758 -67.9834 147° Southeast  Level Estimated
01:42AM 8.6535 -67.9038 147° Southeast  Level Estimated
01:43AM 8.5311 -67.8243 147° Southeast  Level Estimated
01:44AM 8.4088 -67.7449 147° Southeast  Level Estimated
01:45AM 8.2864 -67.6655 147° Southeast  Level Estimated
01:46AM 8.1641 -67.5862 147° Southeast  Level Estimated
01:47AM 8.0417 -67.5069 147° Southeast  Level Estimated
01:48AM 7.9193 -67.4276 147° Southeast  Level Estimated
01:49AM 7.7969 -67.3484 147° Southeast  Level Estimated
01:50AM 7.6744 -67.2692 147° Southeast  Level Estimated
01:51AM 7.5520 -67.1901 147° Southeast  Level Estimated
01:52AM 7.4295 -67.1110 147° Southeast  Level Estimated
01:53AM 7.3070 -67.0320 147° Southeast  Level Estimated
01:54AM 7.1845 -66.9530 147° Southeast  Level Estimated
01:55AM 7.0620 -66.8741 147° Southeast  Level Estimated
01:56AM 6.9395 -66.7952 147° Southeast  Level Estimated
01:57AM 6.8170 -66.7163 147° Southeast  Level Estimated
01:58AM 6.6944 -66.6375 147° Southeast  Level Estimated
01:59AM 6.5719 -66.5587 147° Southeast  Level Estimated
02:00AM 6.4493 -66.4800 147° Southeast  Level Estimated
02:01AM 6.3267 -66.4013 147° Southeast  Level Estimated
02:02AM 6.2042 -66.3226 147° Southeast  Level Estimated
02:03AM 6.0818 -66.2441 147° Southeast  Level Estimated
02:04AM 5.9594 -66.1657 147° Southeast  Level Estimated
02:05AM 5.8370 -66.0873 147° Southeast  Level Estimated
02:06AM 5.7146 -66.0089 147° Southeast  Level Estimated
02:07AM 5.5921 -65.9305 148° Southeast  Level Estimated
02:08AM 5.4697 -65.8522 148° Southeast  Level Estimated
02:09AM 5.3472 -65.7739 148° Southeast  Level Estimated
02:10AM 5.2248 -65.6957 148° Southeast  Level Estimated
02:11AM 5.1023 -65.6175 148° Southeast  Level Estimated
02:12AM 4.9798 -65.5393 148° Southeast  Level Estimated
02:13AM 4.8573 -65.4611 148° Southeast  Level Estimated
02:14AM 4.7348 -65.3830 148° Southeast  Level Estimated
02:15AM 4.6123 -65.3049 148° Southeast  Level Estimated
02:16AM 4.4898 -65.2268 148° Southeast  Level Estimated
02:17AM 4.3673 -65.1487 148° Southeast  Level Estimated
02:18AM 4.2448 -65.0707 148° Southeast  Level Estimated
02:19AM 4.1223 -64.9927 148° Southeast  Level Estimated
02:20AM 3.9997 -64.9147 148° Southeast  Level Estimated
02:21AM 3.8772 -64.8368 148° Southeast  Level Estimated
02:22AM 3.7546 -64.7588 148° Southeast  Level Estimated
02:23AM 3.6320 -64.6809 148° Southeast  Level Estimated
02:24AM 3.5095 -64.6030 148° Southeast  Level Estimated
02:25AM 3.3869 -64.5252 148° Southeast  Level Estimated
02:26AM 3.2643 -64.4473 148° Southeast  Level Estimated
02:27AM 3.1417 -64.3695 148° Southeast  Level Estimated
02:28AM 3.0191 -64.2917 148° Southeast  Level Estimated
02:29AM 2.8965 -64.2139 148° Southeast  Level Estimated
02:30AM 2.7739 -64.1361 148° Southeast  Level Estimated
02:31AM 2.6513 -64.0583 148° Southeast  Level Estimated
02:32AM 2.5287 -63.9806 148° Southeast  Level Estimated
02:33AM 2.4060 -63.9029 148° Southeast  Level Estimated
02:34AM 2.2834 -63.8251 148° Southeast  Level Estimated
02:35AM 2.1608 -63.7474 148° Southeast  Level Estimated
02:36AM 2.0382 -63.6697 148° Southeast  Level Estimated
02:37AM 1.9155 -63.5920 148° Southeast  Level Estimated
02:38AM 1.7929 -63.5144 148° Southeast  Level Estimated
02:39AM 1.6702 -63.4367 148° Southeast  Level Estimated
02:40AM 1.5476 -63.3591 148° Southeast  Level Estimated
02:41AM 1.4252 -63.2816 148° Southeast  Level Estimated
02:42AM 1.3027 -63.2041 148° Southeast  Level Estimated
02:43AM 1.1803 -63.1266 148° Southeast  Level Estimated
02:44AM 1.0579 -63.0491 148° Southeast  Level Estimated
02:45AM 0.9354 -62.9716 148° Southeast  Level Estimated
02:46AM 0.8130 -62.8942 148° Southeast  Level Estimated
02:47AM 0.6905 -62.8167 148° Southeast  Level Estimated
02:48AM 0.5681 -62.7393 148° Southeast  Level Estimated
02:49AM 0.4456 -62.6618 148° Southeast  Level Estimated
02:50AM 0.3232 -62.5843 148° Southeast  Level Estimated
02:51AM 0.2007 -62.5069 148° Southeast  Level Estimated
02:52AM 0.0783 -62.4294 148° Southeast  Level Estimated
02:53AM -0.0442 -62.3520 148° Southeast  Level Estimated
02:54AM -0.1666 -62.2745 148° Southeast  Level Estimated
02:55AM -0.2891 -62.1971 148° Southeast  Level Estimated
02:56AM -0.4115 -62.1196 148° Southeast  Level Estimated
02:57AM -0.5340 -62.0422 148° Southeast  Level Estimated
02:58AM -0.6564 -61.9647 148° Southeast  Level Estimated
02:59AM -0.7789 -61.8873 148° Southeast  Level Estimated
03:00AM -0.9013 -61.8098 148° Southeast  Level Estimated
03:01AM -1.0237 -61.7323 148° Southeast  Level Estimated
03:02AM -1.1462 -61.6548 148° Southeast  Level Estimated
03:03AM -1.2686 -61.5774 148° Southeast  Level Estimated
03:04AM -1.3911 -61.4999 148° Southeast  Level Estimated
03:05AM -1.5135 -61.4224 148° Southeast  Level Estimated
03:06AM -1.6359 -61.3449 148° Southeast  Level Estimated
03:07AM -1.7584 -61.2673 148° Southeast  Level Estimated
03:08AM -1.8808 -61.1898 148° Southeast  Level Estimated
03:09AM -2.0032 -61.1123 148° Southeast  Level Estimated
03:10AM -2.1256 -61.0347 148° Southeast  Level Estimated
03:11AM -2.2480 -60.9572 148° Southeast  Level Estimated
03:12AM -2.3704 -60.8796 148° Southeast  Level Estimated
03:12AM -1.6690 -61.5770 148° Southeast 489 563 37,000  Level FlightAware
03:13AM -2.4928 -60.8020 148° Southeast  Level Estimated
03:13AM -1.7520 -61.5210 146° Southeast 490 564 37,000  Level FlightAware
03:13AM -1.8300 -61.4710 147° Southeast 491 565 37,000  Level FlightAware
03:14AM -1.9090 -61.4180 146° Southeast 492 566 37,000  Level FlightAware
03:15AM -1.9930 -61.3630 147° Southeast 491 565 37,000  Level FlightAware
03:15AM -2.0700 -61.3120 146° Southeast 491 565 37,000  Level FlightAware
03:16AM -2.1570 -61.2540 146° Southeast 493 567 37,000  Level FlightAware
03:17AM -2.2330 -61.2040 147° Southeast 493 567 37,000  Level FlightAware
03:17AM -2.3100 -61.1530 147° Southeast 494 568 37,000  Level FlightAware
03:18AM -2.3930 -61.0970 146° Southeast 495 570 37,000  Level FlightAware
03:19AM -2.4700 -61.0460 147° Southeast 495 570 37,000  Level FlightAware
03:19AM -2.5460 -60.9960 147° Southeast 496 571 37,000  Level FlightAware
03:20AM -2.6360 -60.9360 146° Southeast 496 571 37,000  Level FlightAware
03:21AM -2.7130 -60.8850 147° Southeast 497 572 37,000  Level FlightAware
03:22AM -2.7960 -60.8300 147° Southeast 498 573 37,000  Level FlightAware
03:22AM -2.8740 -60.7790 147° Southeast 498 573 37,000  Level FlightAware
03:23AM -2.9520 -60.7280 147° Southeast 497 572 37,000  Level FlightAware
03:24AM -3.0400 -60.6700 147° Southeast 498 573 37,000  Level FlightAware
03:24AM -3.1170 -60.6190 147° Southeast 499 574 37,000  Level FlightAware
03:25AM -3.2020 -60.5630 147° Southeast 500 575 37,000  Level FlightAware
03:26AM -3.2800 -60.5120 147° Southeast 499 574 37,000  Level FlightAware
03:26AM -3.3550 -60.4630 147° Southeast 499 574 37,000  Level FlightAware
03:29AM -3.6028 -60.3033 147° Southeast  Level Estimated
03:29AM -3.6950 -60.2400 147° Southeast 499 574 37,000  Level FlightAware
03:30AM -3.7710 -60.1900 147° Southeast 499 574 37,000  Level FlightAware
03:31AM -3.8780 -60.1200 147° Southeast 497 572 37,000  Level FlightAware
03:32AM -3.9570 -60.0670 146° Southeast 497 572 37,000  Level FlightAware
03:32AM -4.0220 -60.0230 146° Southeast 497 572 37,000  Level FlightAware
03:33AM -4.0870 -59.9800 147° Southeast 497 572 37,000  Level FlightAware
03:34AM -4.1920 -59.9140 148° Southeast 496 571 37,000  Level FlightAware
03:35AM -4.2730 -59.8590 146° Southeast 496 571 37,000  Level FlightAware
03:35AM -4.3380 -59.8150 146° Southeast 496 571 37,000  Level FlightAware
03:36AM -4.4030 -59.7720 147° Southeast 496 571 37,000  Level FlightAware
03:38AM -4.5999 -59.6448 147° Southeast  Level Estimated
03:39AM -4.7217 -59.5661 147° Southeast  Level Estimated
03:39AM -4.6610 -59.5970 147° Southeast 496 571 37,000  Level FlightAware
03:39AM -4.7260 -59.5530 146° Southeast 496 571 37,000  Level FlightAware
03:40AM -4.8070 -59.4980 146° Southeast 496 571 37,000  Level FlightAware
03:41AM -4.8720 -59.4540 146° Southeast 496 571 37,000  Level FlightAware
03:41AM -4.9360 -59.4110 146° Southeast 496 571 37,000  Level FlightAware
03:42AM -5.0010 -59.3670 146° Southeast 496 571 37,000  Level FlightAware
03:43AM -5.0660 -59.3230 146° Southeast 496 571 37,000  Level FlightAware
03:45AM -5.2836 -59.1823 147° Southeast  Level Estimated
03:46AM -5.4057 -59.1034 147° Southeast  Level Estimated
03:47AM -5.5277 -59.0244 147° Southeast  Level Estimated
03:48AM -5.6497 -58.9454 147° Southeast  Level Estimated
03:49AM -5.7717 -58.8664 147° Southeast  Level Estimated
03:50AM -5.8937 -58.7873 147° Southeast  Level Estimated
03:51AM -6.0156 -58.7082 147° Southeast  Level Estimated
03:52AM -6.1376 -58.6291 147° Southeast  Level Estimated
03:53AM -6.2596 -58.5499 147° Southeast  Level Estimated
03:54AM -6.3815 -58.4707 147° Southeast  Level Estimated
03:55AM -6.5034 -58.3914 147° Southeast  Level Estimated
03:56AM -6.6258 -58.3119 147° Southeast  Level Estimated
03:57AM -6.7481 -58.2323 147° Southeast  Level Estimated
03:58AM -6.8705 -58.1526 147° Southeast  Level Estimated
03:59AM -6.9928 -58.0729 147° Southeast  Level Estimated
04:00AM -7.1151 -57.9932 147° Southeast  Level Estimated
04:01AM -7.2373 -57.9134 147° Southeast  Level Estimated
04:02AM -7.3596 -57.8336 147° Southeast  Level Estimated
04:03AM -7.4819 -57.7537 147° Southeast  Level Estimated
04:04AM -7.6041 -57.6738 147° Southeast  Level Estimated
04:05AM -7.7263 -57.5939 147° Southeast  Level Estimated
04:06AM -7.8486 -57.5139 147° Southeast  Level Estimated
04:07AM -7.9708 -57.4338 147° Southeast  Level Estimated
04:08AM -8.0929 -57.3537 147° Southeast  Level Estimated
04:09AM -8.2151 -57.2736 147° Southeast  Level Estimated
04:10AM -8.3373 -57.1934 147° Southeast  Level Estimated
04:11AM -8.4594 -57.1131 147° Southeast  Level Estimated
04:12AM -8.5815 -57.0328 147° Southeast  Level Estimated
04:13AM -8.7036 -56.9525 147° Southeast  Level Estimated
04:14AM -8.8257 -56.8721 147° Southeast  Level Estimated
04:15AM -8.9478 -56.7916 147° Southeast  Level Estimated
04:16AM -9.0698 -56.7111 147° Southeast  Level Estimated
04:17AM -9.1919 -56.6306 147° Southeast  Level Estimated
04:18AM -9.3139 -56.5500 147° Southeast  Level Estimated
04:19AM -9.4359 -56.4693 147° Southeast  Level Estimated
04:20AM -9.5579 -56.3886 147° Southeast  Level Estimated
04:21AM -9.6798 -56.3078 147° Southeast  Level Estimated
04:22AM -9.8018 -56.2269 147° Southeast  Level Estimated
04:23AM -9.9237 -56.1460 147° Southeast  Level Estimated
04:24AM -10.0456 -56.0650 147° Southeast  Level Estimated
04:25AM -10.1675 -55.9840 147° Southeast  Level Estimated
04:26AM -10.2893 -55.9029 147° Southeast  Level Estimated
04:27AM -10.4112 -55.8218 147° Southeast  Level Estimated
04:28AM -10.5330 -55.7406 147° Southeast  Level Estimated
04:29AM -10.6548 -55.6593 147° Southeast  Level Estimated
04:30AM -10.7766 -55.5779 147° Southeast  Level Estimated
04:31AM -10.8983 -55.4965 147° Southeast  Level Estimated
04:32AM -11.0201 -55.4151 147° Southeast  Level Estimated
04:33AM -11.1418 -55.3335 147° Southeast  Level Estimated
04:34AM -11.2635 -55.2519 147° Southeast  Level Estimated
04:35AM -11.3851 -55.1702 147° Southeast  Level Estimated
04:36AM -11.5068 -55.0885 147° Southeast  Level Estimated
04:37AM -11.6284 -55.0066 147° Southeast  Level Estimated
04:38AM -11.7500 -54.9248 147° Southeast  Level Estimated
04:39AM -11.8716 -54.8428 147° Southeast  Level Estimated
04:40AM -11.9932 -54.7607 147° Southeast  Level Estimated
04:41AM -12.1147 -54.6786 147° Southeast  Level Estimated
04:42AM -12.2362 -54.5965 147° Southeast  Level Estimated
04:43AM -12.3577 -54.5142 147° Southeast  Level Estimated
04:44AM -12.4792 -54.4319 147° Southeast  Level Estimated
04:45AM -12.6006 -54.3494 146° Southeast  Level Estimated
04:46AM -12.7220 -54.2669 146° Southeast  Level Estimated
04:47AM -12.8434 -54.1844 146° Southeast  Level Estimated
04:48AM -12.9648 -54.1017 146° Southeast  Level Estimated
04:49AM -13.0861 -54.0190 146° Southeast  Level Estimated
04:50AM -13.2074 -53.9362 146° Southeast  Level Estimated
04:51AM -13.3287 -53.8533 146° Southeast  Level Estimated
04:52AM -13.4499 -53.7703 146° Southeast  Level Estimated
04:53AM -13.5711 -53.6872 146° Southeast  Level Estimated
04:54AM -13.6924 -53.6041 146° Southeast  Level Estimated
04:55AM -13.8135 -53.5208 146° Southeast  Level Estimated
04:56AM -13.9347 -53.4375 146° Southeast  Level Estimated
04:57AM -14.0558 -53.3541 146° Southeast  Level Estimated
04:58AM -14.1769 -53.2706 146° Southeast  Level Estimated
04:59AM -14.2979 -53.1870 146° Southeast  Level Estimated
05:00AM -14.4190 -53.1033 146° Southeast  Level Estimated
05:01AM -14.5400 -53.0196 146° Southeast  Level Estimated
05:02AM -14.6609 -52.9357 146° Southeast  Level Estimated
05:03AM -14.7819 -52.8518 146° Southeast  Level Estimated
05:04AM -14.9028 -52.7677 146° Southeast  Level Estimated
05:05AM -15.0237 -52.6836 146° Southeast  Level Estimated
05:06AM -15.1445 -52.5993 146° Southeast  Level Estimated
05:07AM -15.2653 -52.5150 146° Southeast  Level Estimated
05:08AM -15.3861 -52.4306 146° Southeast  Level Estimated
05:09AM -15.5068 -52.3460 146° Southeast  Level Estimated
05:10AM -15.6276 -52.2614 146° Southeast  Level Estimated
05:11AM -15.7483 -52.1767 146° Southeast  Level Estimated
05:12AM -15.8689 -52.0919 146° Southeast  Level Estimated
05:13AM -15.9895 -52.0069 146° Southeast  Level Estimated
05:14AM -16.1101 -51.9219 146° Southeast  Level Estimated
05:15AM -16.2307 -51.8368 146° Southeast  Level Estimated
05:16AM -16.3512 -51.7515 146° Southeast  Level Estimated
05:17AM -16.4717 -51.6662 146° Southeast  Level Estimated
05:18AM -16.5921 -51.5807 146° Southeast  Level Estimated
05:19AM -16.7125 -51.4952 146° Southeast  Level Estimated
05:20AM -16.8329 -51.4095 146° Southeast  Level Estimated
05:21AM -16.9533 -51.3237 146° Southeast  Level Estimated
05:22AM -17.0736 -51.2379 146° Southeast  Level Estimated
05:23AM -17.1938 -51.1519 146° Southeast  Level Estimated
05:24AM -17.3141 -51.0658 146° Southeast  Level Estimated
05:25AM -17.4343 -50.9795 146° Southeast  Level Estimated
05:26AM -17.5544 -50.8932 146° Southeast  Level Estimated
05:27AM -17.6746 -50.8068 146° Southeast  Level Estimated
05:28AM -17.7947 -50.7202 146° Southeast  Level Estimated
05:29AM -17.9147 -50.6335 146° Southeast  Level Estimated
05:30AM -18.0347 -50.5467 145° Southeast  Level Estimated
05:31AM -18.1547 -50.4598 145° Southeast  Level Estimated
05:32AM -18.2746 -50.3727 145° Southeast  Level Estimated
05:33AM -18.3945 -50.2856 145° Southeast  Level Estimated
05:34AM -18.5144 -50.1983 145° Southeast  Level Estimated
05:35AM -18.6342 -50.1109 145° Southeast  Level Estimated
05:36AM -18.7540 -50.0234 145° Southeast  Level Estimated
05:37AM -18.8737 -49.9357 145° Southeast  Level Estimated
05:38AM -18.9934 -49.8480 145° Southeast  Level Estimated
05:39AM -19.1130 -49.7601 145° Southeast  Level Estimated
05:40AM -19.2326 -49.6720 145° Southeast  Level Estimated
05:41AM -19.3522 -49.5839 145° Southeast  Level Estimated
05:42AM -19.4717 -49.4956 145° Southeast  Level Estimated
05:43AM -19.5912 -49.4072 145° Southeast  Level Estimated
05:44AM -19.7106 -49.3187 145° Southeast  Level Estimated
05:45AM -19.8300 -49.2300 145° Southeast  Level Estimated
05:46AM -19.9494 -49.1412 145° Southeast  Level Estimated
05:46AM -19.2250 -49.6920 145° Southeast 502 578 37,000  Level FlightAware
05:46AM -19.3150 -49.6160 141° Southeast 501 577 37,000  Level FlightAware
05:47AM -19.3830 -49.5580 141° Southeast 501 577 37,000  Level FlightAware
05:48AM -19.4510 -49.5020 142° Southeast 499 574 37,000  Level FlightAware
05:48AM -19.5280 -49.4370 141° Southeast 498 573 37,000  Level FlightAware
05:49AM -19.6230 -49.3570 142° Southeast 497 572 37,000  Level FlightAware
05:50AM -19.6890 -49.3010 141° Southeast 496 571 37,000  Level FlightAware
05:51AM -19.7660 -49.2360 142° Southeast 495 570 37,000  Level FlightAware
05:51AM -19.8470 -49.1680 142° Southeast 495 570 37,000  Level FlightAware
05:52AM -19.9270 -49.1000 141° Southeast 495 570 37,000  Level FlightAware
05:53AM -19.9990 -49.0380 141° Southeast 497 572 37,000  Level FlightAware
05:53AM -20.0680 -48.9800 142° Southeast 497 572 37,000  Level FlightAware
05:54AM -20.1540 -48.9070 141° Southeast 496 571 37,000  Level FlightAware
05:55AM -20.2260 -48.8460 142° Southeast 497 572 37,000  Level FlightAware
05:55AM -20.2990 -48.7840 141° Southeast 494 568 37,000  Level FlightAware
05:56AM -20.3830 -48.7310 149° Southeast 483 556 37,000  Level FlightAware
05:57AM -20.4610 -48.6880 153° Southeast 480 552 37,000  Level FlightAware
05:58AM -20.5530 -48.6400 154° Southeast 480 552 37,000  Level FlightAware
05:58AM -20.6210 -48.6040 154° Southeast 480 552 37,000  Level FlightAware
05:59AM -20.7210 -48.5500 153° Southeast 480 552 37,000  Level FlightAware
06:00AM -20.7940 -48.5110 153° Southeast 481 554 37,000  Level FlightAware
06:00AM -20.8740 -48.4490 144° Southeast 493 567 37,000  Level FlightAware
06:01AM -20.9470 -48.3900 143° Southeast 492 566 37,000  Level FlightAware
06:02AM -21.0310 -48.3250 144° Southeast 491 565 37,000  Level FlightAware
06:02AM -21.1060 -48.2680 145° Southeast 492 566 37,000  Level FlightAware
06:03AM -21.1870 -48.2050 144° Southeast 495 570 37,000  Level FlightAware
06:04AM -21.2610 -48.1470 144° Southeast 495 570 37,000  Level FlightAware
06:05AM -21.3450 -48.0810 144° Southeast 495 570 37,000  Level FlightAware
06:05AM -21.4210 -48.0210 144° Southeast 496 571 37,000  Level FlightAware
06:06AM -21.4940 -47.9630 144° Southeast 495 570 37,000  Level FlightAware
06:07AM -21.5770 -47.8980 144° Southeast 493 567 37,000 -540 Level FlightAware
06:07AM -21.6480 -47.8410 143° Southeast 476 548 36,300 -1,440 Descending FlightAware
06:08AM -21.7150 -47.7880 144° Southeast 466 536 35,100 -1,800 Descending FlightAware
06:09AM -21.7940 -47.7250 143° Southeast 454 522 33,800 -1,740 Descending FlightAware
06:09AM -21.8620 -47.6710 144° Southeast 445 512 32,700 -1,680 Descending FlightAware
06:10AM -21.9260 -47.6200 144° Southeast 436 502 31,600 -1,800 Descending FlightAware
06:11AM -22.0010 -47.5600 143° Southeast 427 491 30,200 -1,740 Descending FlightAware
06:12AM -22.0690 -47.5050 143° Southeast 422 486 29,000 -1,680 Descending FlightAware
06:12AM -22.1320 -47.4550 144° Southeast 416 479 27,900 -1,440 Descending FlightAware
06:13AM -22.2040 -47.3980 144° Southeast 442 509 27,000 -1,380 Descending FlightAware
06:14AM -22.2710 -47.3440 143° Southeast 440 506 26,000 -1,620 Descending FlightAware
06:14AM -22.3330 -47.2940 143° Southeast 444 511 24,900 -1,740 Descending FlightAware
06:15AM -22.3990 -47.2410 143° Southeast 429 494 23,700 -1,860 Descending FlightAware
06:16AM -22.4720 -47.1820 143° Southeast 423 487 22,300 -1,800 Descending FlightAware
06:17AM -22.5390 -47.1280 143° Southeast 370 426 21,000 -1,740 Descending FlightAware
06:17AM -22.5970 -47.0900 149° Southeast 389 448 19,900 -1,740 Descending FlightAware
06:18AM -22.6670 -47.0590 158° South 392 451 18,700 -1,740 Descending FlightAware
06:19AM -22.7340 -47.0320 160° South 379 436 17,600 -1,800 Descending FlightAware
06:19AM -22.8100 -47.0000 159° South 379 436 16,200 -1,860 Descending FlightAware
06:20AM -22.8980 -46.9630 159° South 366 421 14,500 -1,920 Descending FlightAware
06:21AM -22.9620 -46.9360 159° South 332 382 13,200 -1,860 Descending FlightAware
06:22AM -23.0230 -46.9100 159° South 295 339 11,900 -1,740 Descending FlightAware
06:22AM -23.0740 -46.8890 159° South 292 336 10,800 -1,380 Descending FlightAware
06:23AM -23.1330 -46.8640 159° South 292 336 10,000 -720 Descending FlightAware
06:23AM -23.1630 -46.8510 158° South 282 325 10,000 -600 Level FlightAware
06:24AM -23.2010 -46.8350 159° South 281 323 9,500 -1,080 Descending FlightAware
06:24AM -23.2140 -46.8300 161° South 280 322 9,300 -1,500 Descending FlightAware
06:25AM -23.2510 -46.8140 158° South 279 321 8,500 -1,620 Descending FlightAware
06:25AM -23.2880 -46.7990 160° South 282 325 7,700 -1,440 Descending FlightAware
06:26AM -23.3200 -46.7850 158° South 276 318 7,200 -1,080 Descending FlightAware
06:26AM -23.3380 -46.7770 158° South 265 305 7,000 -420 Descending FlightAware
06:26AM -23.3700 -46.7620 157° South 243 280 6,900 -660 Descending FlightAware
06:27AM -23.3930 -46.7430 143° Southeast 234 269 6,400 -1,080 Descending FlightAware
06:27AM -23.4150 -46.7230 140° Southeast 223 257 6,000 -1,020 Descending FlightAware
06:28AM -23.4380 -46.7010 139° Southeast 222 255 5,500 -900 Descending FlightAware
06:28AM -23.4560 -46.6740 126° Southeast 219 252 5,100 -840 Descending FlightAware
06:28AM -23.4630 -46.6590 117° Southeast 208 239 4,900 -720 Descending FlightAware
06:29AM -23.4740 -46.6300 112° Southeast 202 232 4,600 -480 Descending FlightAware
06:29AM -23.4710 -46.6070 82° East 186 214 4,500 -480 Descending FlightAware
06:30AM -23.4670 -46.5910 75° East 189 217 4,300 -840 Descending FlightAware
06:30AM -23.4600 -46.5660 73° East 175 201 3,900 -900 Descending FlightAware
06:30AM -23.4550 -46.5460 75° East 151 174 3,500 -1,020 Descending FlightAware
06:31AM -23.4490 -46.5250 73° East 141 162 3,000 -900 Descending FlightAware
06:31AM -23.4450 -46.5090 75° East 133 153 2,700 -660 Descending FlightAware
06:32AM -23.4390 -46.4890 72° East 132 152 2,400 -600 Descending FlightAware